Time;durP1;ratioP1;P1;durP2;ratioP2;P2;SDS_P1;SDS_P2;PMS_P1;PMS_P2;Temp;Humidity;BMP_temperature;BMP_pressure;BME280_temperature;BME280_humidity;BME280_pressure;Samples;Min_cycle;Max_cycle;Signal;HPM_P1;HPM_P2
2022/02/16 00:01:25;;;;;;;;;;;3.30;99.90;;;;;;5051677;28;19917;-73
2022/02/16 00:03:50;;;;;;;;;;;3.10;99.90;;;;;;5053119;28;19931;-73
2022/02/16 00:06:16;;;;;;;;;;;3.20;99.90;;;;;;5055417;28;19909;-73
2022/02/16 00:08:42;;;;;;;;;;;2.90;99.90;;;;;;5055512;28;19909;-73
2022/02/16 00:11:07;;;;;;;;;;;2.80;99.90;;;;;;5037367;28;19909;-73
2022/02/16 00:13:33;;;;;;;;;;;2.70;99.90;;;;;;5037404;28;20284;-72
2022/02/16 00:15:59;;;;;;;;;;;2.70;99.90;;;;;;5053846;28;20012;-73
2022/02/16 00:18:24;;;;;;;;;;;2.70;99.90;;;;;;5054018;28;20377;-73
2022/02/16 00:20:50;;;;;;;;;;;2.60;99.90;;;;;;5055116;28;19960;-73
2022/02/16 00:23:16;;;;;;;;;;;2.50;99.90;;;;;;5055048;28;20388;-73
2022/02/16 00:25:41;;;;;;;;;;;2.40;99.90;;;;;;5053732;28;19959;-73
2022/02/16 00:28:07;;;;;;;;;;;2.50;99.90;;;;;;5055135;28;20331;-72
2022/02/16 00:30:33;;;;;;;;;;;2.50;99.90;;;;;;5055040;28;19955;-73
2022/02/16 00:32:59;;;;;;;;;;;2.50;99.90;;;;;;5036972;28;19959;-73
2022/02/16 00:35:24;;;;;;;;;;;2.50;99.90;;;;;;5054863;28;19952;-73
2022/02/16 00:37:51;;;;;;;;;;;2.60;99.90;;;;;;5053614;28;19916;-73
2022/02/16 00:40:17;;;;;;;;;;;2.50;99.90;;;;;;5054938;28;19913;-73
2022/02/16 00:42:43;;;;;;;;;;;2.50;99.90;;;;;;5036788;28;19909;-73
2022/02/16 00:45:09;;;;;;;;;;;2.40;99.90;;;;;;5054799;28;19916;-73
2022/02/16 00:47:35;;;;;;;;;;;2.40;99.90;;;;;;5054700;28;20265;-73
2022/02/16 00:50:01;;;;;;;;;;;2.50;99.90;;;;;;5054721;28;19913;-73
2022/02/16 00:52:26;;;;;;;;;;;2.50;99.90;;;;;;5054761;28;20356;-73
2022/02/16 00:54:52;;;;;;;;;;;2.40;99.90;;;;;;5036696;28;20003;-73
2022/02/16 00:57:18;;;;;;;;;;;2.30;99.90;;;;;;5054392;28;19909;-73
2022/02/16 00:59:43;;;;;;;;;;;2.40;99.90;;;;;;5053190;28;19909;-73
2022/02/16 01:02:09;;;;;;;;;;;2.50;99.90;;;;;;5054268;28;19951;-73
2022/02/16 01:04:35;;;;;;;;;;;2.60;99.90;;;;;;5054223;28;19916;-73
2022/02/16 01:07:00;;;;;;;;;;;2.60;99.90;;;;;;5054168;28;19916;-73
2022/02/16 01:09:26;;;;;;;;;;;2.60;99.90;;;;;;5054325;28;19909;-72
2022/02/16 01:11:52;;;;;;;;;;;2.50;99.90;;;;;;5054263;28;20407;-73
2022/02/16 01:14:18;;;;;;;;;;;2.70;99.90;;;;;;5052638;28;19912;-73
2022/02/16 01:16:43;;;;;;;;;;;2.60;99.90;;;;;;5054143;28;19916;-73
2022/02/16 01:19:09;;;;;;;;;;;2.50;99.90;;;;;;5053995;28;19909;-73
2022/02/16 01:21:35;;;;;;;;;;;2.60;99.90;;;;;;5053912;28;20396;-73
2022/02/16 01:24:00;;;;;;;;;;;2.60;99.90;;;;;;5052694;28;19908;-73
2022/02/16 01:26:26;;;;;;;;;;;2.60;99.90;;;;;;5053805;28;20424;-73
2022/02/16 01:28:52;;;;;;;;;;;2.40;99.90;;;;;;5052701;28;20023;-73
2022/02/16 01:31:17;;;;;;;;;;;2.40;99.90;;;;;;5053746;28;19955;-73
2022/02/16 01:33:43;;;;;;;;;;;2.30;99.90;;;;;;5053802;28;19962;-72
2022/02/16 01:36:08;;;;;;;;;;;2.20;99.90;;;;;;5052419;28;19916;-73
2022/02/16 01:38:35;;;;;;;;;;;2.10;99.90;;;;;;5052541;28;20322;-73
2022/02/16 01:41:01;;;;;;;;;;;2.10;99.90;;;;;;5053639;28;19913;-73
2022/02/16 01:43:26;;;;;;;;;;;2.20;99.90;;;;;;5053729;28;19958;-73
2022/02/16 01:45:52;;;;;;;;;;;2.20;99.90;;;;;;5052189;28;20326;-73
2022/02/16 01:48:17;;;;;;;;;;;2.30;99.90;;;;;;5053563;28;19909;-73
2022/02/16 01:50:43;;;;;;;;;;;2.20;99.90;;;;;;5053415;28;19909;-73
2022/02/16 01:53:09;;;;;;;;;;;2.10;99.90;;;;;;5053678;28;19913;-73
2022/02/16 01:55:35;;;;;;;;;;;2.10;99.90;;;;;;5053317;28;19970;-72
2022/02/16 01:58:01;;;;;;;;;;;2.20;99.90;;;;;;5053271;28;20017;-73
2022/02/16 02:00:26;;;;;;;;;;;2.20;99.90;;;;;;5053242;28;20272;-73
2022/02/16 02:02:52;;;;;;;;;;;2.20;99.90;;;;;;5051876;28;19916;-73
2022/02/16 02:05:18;;;;;;;;;;;2.20;99.90;;;;;;5052048;28;19908;-72
2022/02/16 02:07:43;;;;;;;;;;;2.20;99.90;;;;;;5053222;28;19944;-73
2022/02/16 02:10:09;;;;;;;;;;;2.20;99.90;;;;;;5053292;28;20007;-73
2022/02/16 02:13:01;;;;;;;;;;;2.10;99.90;;;;;;5053102;28;20388;-73
2022/02/16 02:15:27;;;;;;;;;;;2.20;99.90;;;;;;5050689;28;19916;-73
2022/02/16 02:17:53;;;;;;;;;;;2.20;99.90;;;;;;5051858;28;19909;-73
2022/02/16 02:20:20;;;;;;;;;;;2.10;99.90;;;;;;5034997;28;19996;-73
2022/02/16 02:22:46;;;;;;;;;;;2.20;99.90;;;;;;5052884;28;19916;-73
2022/02/16 02:25:11;;;;;;;;;;;2.10;99.90;;;;;;5051431;28;19920;-73
2022/02/16 02:27:37;;;;;;;;;;;2.30;99.90;;;;;;5052181;28;19960;-73
2022/02/16 02:30:03;;;;;;;;;;;2.30;99.90;;;;;;5052851;28;20355;-73
2022/02/16 02:32:28;;;;;;;;;;;2.30;99.90;;;;;;5051501;28;19959;-73
2022/02/16 02:34:54;;;;;;;;;;;2.10;99.90;;;;;;5052671;28;19909;-73
2022/02/16 02:37:19;;;;;;;;;;;2.20;99.90;;;;;;5051300;28;20032;-73
2022/02/16 02:39:45;;;;;;;;;;;2.20;99.90;;;;;;5051221;28;19909;-73
2022/02/16 02:42:11;;;;;;;;;;;2.20;99.90;;;;;;5052639;28;19917;-73
2022/02/16 02:44:36;;;;;;;;;;;2.10;99.90;;;;;;5052529;28;19909;-73
2022/02/16 02:47:02;;;;;;;;;;;2.10;99.90;;;;;;5052624;28;19909;-73
2022/02/16 02:49:28;;;;;;;;;;;2.10;99.90;;;;;;5052453;28;19909;-73
2022/02/16 02:51:53;;;;;;;;;;;2.20;99.90;;;;;;5052524;28;19909;-73
2022/02/16 02:54:19;;;;;;;;;;;2.20;99.90;;;;;;5052391;28;19963;-72
2022/02/16 02:56:45;;;;;;;;;;;2.10;99.90;;;;;;5051084;28;19961;-73
2022/02/16 02:59:10;;;;;;;;;;;2.10;99.90;;;;;;5051132;28;19948;-73
2022/02/16 03:01:39;;;;;;;;;;;2.20;99.90;;;;;;5034376;28;19913;-73
2022/02/16 03:04:04;;;;;;;;;;;2.10;99.90;;;;;;5052376;28;20317;-73
2022/02/16 03:06:30;;;;;;;;;;;2.10;99.90;;;;;;5052280;28;19909;-73
2022/02/16 03:08:55;;;;;;;;;;;2.10;99.90;;;;;;5051113;28;19917;-73
2022/02/16 03:11:21;;;;;;;;;;;2.20;99.90;;;;;;5052263;28;20291;-73
2022/02/16 03:13:48;;;;;;;;;;;2.10;99.90;;;;;;5052315;28;19935;-73
2022/02/16 03:16:14;;;;;;;;;;;2.20;99.90;;;;;;5052261;28;19920;-73
2022/02/16 03:18:39;;;;;;;;;;;2.20;99.90;;;;;;5052114;28;20361;-72
2022/02/16 03:21:05;;;;;;;;;;;2.10;99.90;;;;;;5052071;28;20353;-73
2022/02/16 03:23:31;;;;;;;;;;;2.20;99.90;;;;;;5050738;28;19975;-73
2022/02/16 03:25:56;;;;;;;;;;;2.20;99.90;;;;;;5051931;28;20275;-73
2022/02/16 03:28:22;;;;;;;;;;;2.10;99.90;;;;;;5052079;28;19909;-72
2022/02/16 03:30:47;;;;;;;;;;;2.20;99.90;;;;;;5052055;28;19924;-73
2022/02/16 03:33:13;;;;;;;;;;;2.00;99.90;;;;;;5050648;28;19913;-73
2022/02/16 03:35:39;;;;;;;;;;;2.10;99.90;;;;;;5051935;28;20368;-73
2022/02/16 03:38:05;;;;;;;;;;;2.00;99.90;;;;;;5036262;28;19915;-72
2022/02/16 03:40:30;;;;;;;;;;;1.90;99.90;;;;;;5054641;28;19919;-72
2022/02/16 03:42:59;;;;;;;;;;;1.90;99.90;;;;;;5055924;28;19915;-73
2022/02/16 03:45:26;;;;;;;;;;;1.90;99.90;;;;;;5055783;28;20007;-73
2022/02/16 03:47:52;;;;;;;;;;;2.00;99.90;;;;;;5055734;28;19916;-73
2022/02/16 03:50:18;;;;;;;;;;;1.80;99.90;;;;;;5055824;28;19909;-73
2022/02/16 03:52:44;;;;;;;;;;;1.80;99.90;;;;;;5054384;28;19913;-73
2022/02/16 03:55:10;;;;;;;;;;;1.80;99.90;;;;;;5054430;28;20464;-73
2022/02/16 03:57:35;;;;;;;;;;;1.90;99.90;;;;;;5055586;28;19908;-73
2022/02/16 04:00:04;;;;;;;;;;;1.90;99.90;;;;;;5054378;28;19954;-72
2022/02/16 04:02:30;;;;;;;;;;;1.90;99.90;;;;;;5055364;28;19996;-72
2022/02/16 04:04:55;;;;;;;;;;;2.00;99.90;;;;;;5055459;28;19951;-73
2022/02/16 04:07:22;;;;;;;;;;;2.10;99.90;;;;;;5054138;28;19912;-73
2022/02/16 04:09:47;;;;;;;;;;;2.00;99.90;;;;;;5055475;28;19909;-73
2022/02/16 04:12:13;;;;;;;;;;;2.00;99.90;;;;;;5054144;28;20046;-72
2022/02/16 04:14:39;;;;;;;;;;;2.00;99.90;;;;;;5055209;28;19923;-73
2022/02/16 04:17:04;;;;;;;;;;;2.00;99.90;;;;;;5055186;28;19998;-73
2022/02/16 04:19:30;;;;;;;;;;;2.10;99.90;;;;;;5055313;28;19913;-73
2022/02/16 04:21:56;;;;;;;;;;;2.20;99.90;;;;;;5055245;28;19917;-73
2022/02/16 04:24:21;;;;;;;;;;;2.20;99.90;;;;;;5055161;28;19924;-72
2022/02/16 04:26:47;;;;;;;;;;;2.20;99.90;;;;;;5054863;28;19908;-73
2022/02/16 04:29:12;;;;;;;;;;;2.20;99.90;;;;;;5055147;28;20133;-73
2022/02/16 04:31:38;;;;;;;;;;;2.20;99.90;;;;;;5055031;28;19924;-73
2022/02/16 04:34:04;;;;;;;;;;;2.30;99.90;;;;;;5054853;28;19915;-72
2022/02/16 04:36:29;;;;;;;;;;;2.30;99.90;;;;;;5053734;28;20383;-73
2022/02/16 04:38:56;;;;;;;;;;;2.30;99.90;;;;;;5054910;28;20004;-73
2022/02/16 04:41:22;;;;;;;;;;;2.40;99.90;;;;;;5053457;28;19916;-73
2022/02/16 04:43:48;;;;;;;;;;;2.40;99.90;;;;;;5054934;28;19991;-73
2022/02/16 04:46:14;;;;;;;;;;;2.40;99.90;;;;;;5036782;28;20195;-74
2022/02/16 04:48:39;;;;;;;;;;;2.40;99.90;;;;;;5054407;28;20008;-74
2022/02/16 04:51:05;;;;;;;;;;;2.50;99.90;;;;;;5054331;28;19910;-73
2022/02/16 04:53:33;;;;;;;;;;;2.50;99.90;;;;;;5054646;28;19986;-73
2022/02/16 04:55:59;;;;;;;;;;;2.50;99.90;;;;;;5054473;28;20022;-74
2022/02/16 04:58:25;;;;;;;;;;;2.60;99.90;;;;;;5053353;28;20009;-74
2022/02/16 05:00:50;;;;;;;;;;;2.60;99.90;;;;;;5053077;28;20138;-73
2022/02/16 05:03:16;;;;;;;;;;;2.60;99.90;;;;;;5054300;28;19931;-74
2022/02/16 05:05:42;;;;;;;;;;;2.60;99.90;;;;;;5054524;28;19916;-74
2022/02/16 05:08:08;;;;;;;;;;;2.70;99.90;;;;;;5052926;28;19909;-71
2022/02/16 05:10:33;;;;;;;;;;;2.60;99.90;;;;;;5052934;28;19948;-71
2022/02/16 05:12:59;;;;;;;;;;;2.60;99.90;;;;;;5054099;28;19915;-71
2022/02/16 05:15:25;;;;;;;;;;;2.60;99.90;;;;;;5052897;28;20012;-70
2022/02/16 05:17:50;;;;;;;;;;;2.60;99.90;;;;;;5052996;28;20269;-71
2022/02/16 05:20:16;;;;;;;;;;;2.70;99.90;;;;;;5053112;28;20004;-71
2022/02/16 05:22:42;;;;;;;;;;;2.80;99.90;;;;;;5054187;28;20395;-71
2022/02/16 05:25:07;;;;;;;;;;;2.70;99.90;;;;;;5053994;28;19913;-71
2022/02/16 05:27:33;;;;;;;;;;;2.70;99.90;;;;;;5053949;28;19913;-71
2022/02/16 05:29:59;;;;;;;;;;;2.70;99.90;;;;;;5053997;28;19909;-71
2022/02/16 05:32:24;;;;;;;;;;;2.50;99.90;;;;;;5053892;28;19909;-72
2022/02/16 05:34:50;;;;;;;;;;;2.50;99.90;;;;;;5052573;28;19974;-71
2022/02/16 05:37:35;;;;;;;;;;;2.60;99.90;;;;;;5052971;28;20425;-70
2022/02/16 05:40:01;;;;;;;;;;;2.50;99.90;;;;;;5053660;28;19995;-70
2022/02/16 05:42:27;;;;;;;;;;;2.50;99.90;;;;;;5052156;28;19920;-71
2022/02/16 05:44:52;;;;;;;;;;;2.50;99.90;;;;;;5052291;28;19915;-71
2022/02/16 05:47:18;;;;;;;;;;;2.50;99.90;;;;;;5052127;28;19916;-71
2022/02/16 05:49:43;;;;;;;;;;;2.60;99.90;;;;;;5052194;28;20372;-71
2022/02/16 05:52:09;;;;;;;;;;;2.70;99.90;;;;;;5053542;28;19945;-71
2022/02/16 05:54:35;;;;;;;;;;;2.60;99.90;;;;;;5052291;28;19909;-71
2022/02/16 05:57:00;;;;;;;;;;;2.60;99.90;;;;;;5053376;28;19916;-71
2022/02/16 05:59:26;;;;;;;;;;;2.60;99.90;;;;;;5052045;28;19909;-72
2022/02/16 06:01:51;;;;;;;;;;;2.70;99.90;;;;;;5052183;28;19948;-71
2022/02/16 06:04:17;;;;;;;;;;;2.70;99.90;;;;;;5053291;28;19967;-71
2022/02/16 06:06:43;;;;;;;;;;;2.80;99.90;;;;;;5052931;28;19909;-71
2022/02/16 06:09:09;;;;;;;;;;;2.70;99.90;;;;;;5053212;28;20357;-71
2022/02/16 06:11:35;;;;;;;;;;;2.70;99.90;;;;;;5053308;28;19909;-72
2022/02/16 06:14:01;;;;;;;;;;;2.70;99.90;;;;;;5052862;28;19908;-71
2022/02/16 06:16:26;;;;;;;;;;;2.80;99.90;;;;;;5052863;28;19920;-71
2022/02/16 06:18:52;;;;;;;;;;;2.70;99.90;;;;;;5051623;28;20321;-74
2022/02/16 06:21:18;;;;;;;;;;;2.80;99.90;;;;;;5052967;28;19913;-71
2022/02/16 06:23:44;;;;;;;;;;;2.80;99.90;;;;;;5052770;28;19908;-71
2022/02/16 06:26:09;;;;;;;;;;;2.80;99.90;;;;;;5051389;28;19978;-71
2022/02/16 06:28:35;;;;;;;;;;;2.80;99.90;;;;;;5051456;28;20000;-71
2022/02/16 06:31:04;;;;;;;;;;;2.80;99.90;;;;;;5061809;28;19950;-70
2022/02/16 06:33:31;;;;;;;;;;;2.80;99.90;;;;;;5052632;28;20003;-71
2022/02/16 06:35:57;;;;;;;;;;;2.80;99.90;;;;;;5070790;28;19909;-71
2022/02/16 06:38:22;;;;;;;;;;;2.80;99.90;;;;;;5072497;28;20276;-71
2022/02/16 06:40:49;;;;;;;;;;;2.90;99.90;;;;;;5059334;28;19913;-71
2022/02/16 06:43:14;;;;;;;;;;;2.90;99.90;;;;;;5050971;28;19916;-71
2022/02/16 06:45:40;;;;;;;;;;;2.60;99.90;;;;;;5052166;28;19908;-71
2022/02/16 06:48:06;;;;;;;;;;;2.70;99.90;;;;;;5052223;28;19909;-72
2022/02/16 06:50:31;;;;;;;;;;;2.60;99.90;;;;;;5052116;28;19912;-71
2022/02/16 06:52:57;;;;;;;;;;;2.50;99.90;;;;;;5052139;28;20401;-71
2022/02/16 06:55:22;;;;;;;;;;;2.50;99.90;;;;;;5050705;28;19946;-71
2022/02/16 06:57:48;;;;;;;;;;;2.60;99.90;;;;;;5050422;28;19908;-71
2022/02/16 07:00:14;;;;;;;;;;;2.60;99.90;;;;;;5050714;28;19915;-71
2022/02/16 07:02:44;;;;;;;;;;;2.60;99.90;;;;;;5037680;28;19999;-71
2022/02/16 07:05:09;;;;;;;;;;;2.60;99.90;;;;;;5065459;28;19909;-71
2022/02/16 07:07:35;;;;;;;;;;;2.60;99.90;;;;;;5070894;28;19914;-70
2022/02/16 07:10:01;;;;;;;;;;;2.70;99.90;;;;;;5065813;28;19912;-74
2022/02/16 07:12:26;;;;;;;;;;;2.80;99.90;;;;;;5050147;28;19909;-71
2022/02/16 07:14:56;;;;;;;;;;;2.90;99.90;;;;;;5051200;28;19917;-71
2022/02/16 07:17:22;;;;;;;;;;;3.00;99.90;;;;;;5051738;28;19913;-70
2022/02/16 07:19:48;;;;;;;;;;;3.10;99.90;;;;;;5051720;28;20288;-71
2022/02/16 07:22:14;;;;;;;;;;;3.10;99.90;;;;;;5052147;28;19916;-71
2022/02/16 07:24:39;;;;;;;;;;;3.30;99.90;;;;;;5049792;28;19973;-71
2022/02/16 07:27:05;;;;;;;;;;;3.30;99.90;;;;;;5050383;28;19916;-71
2022/02/16 07:29:31;;;;;;;;;;;3.40;99.90;;;;;;5051968;28;19974;-71
2022/02/16 07:31:56;;;;;;;;;;;3.40;99.90;;;;;;5051652;28;19909;-71
2022/02/16 07:34:24;;;;;;;;;;;3.50;99.90;;;;;;5052216;28;19908;-71
2022/02/16 07:36:50;;;;;;;;;;;3.50;99.90;;;;;;5052197;28;19936;-71
2022/02/16 07:39:15;;;;;;;;;;;3.60;99.90;;;;;;5051807;28;19924;-72
2022/02/16 07:41:41;;;;;;;;;;;3.70;99.90;;;;;;5051487;28;20375;-71
2022/02/16 07:44:07;;;;;;;;;;;3.70;99.90;;;;;;5051867;28;19909;-71
2022/02/16 07:46:32;;;;;;;;;;;3.70;99.90;;;;;;5051533;28;19908;-71
2022/02/16 07:48:58;;;;;;;;;;;3.70;99.90;;;;;;5050317;28;19909;-72
2022/02/16 07:51:23;;;;;;;;;;;3.70;99.90;;;;;;5049463;28;19913;-71
2022/02/16 07:53:49;;;;;;;;;;;3.70;99.90;;;;;;5049319;28;19924;-71
2022/02/16 07:56:15;;;;;;;;;;;3.90;99.90;;;;;;5050416;28;20007;-71
2022/02/16 07:58:41;;;;;;;;;;;4.00;99.90;;;;;;5049262;28;20380;-72
2022/02/16 08:01:06;;;;;;;;;;;4.10;99.90;;;;;;5046259;28;20369;-72
2022/02/16 08:03:32;;;;;;;;;;;4.20;99.90;;;;;;5051846;28;19935;-72
2022/02/16 08:06:03;;;;;;;;;;;4.10;99.90;;;;;;5048666;28;19909;-72
2022/02/16 08:08:29;;;;;;;;;;;4.20;99.90;;;;;;5049275;28;20330;-71
2022/02/16 08:10:55;;;;;;;;;;;4.20;99.90;;;;;;5050323;28;19908;-71
2022/02/16 08:13:20;;;;;;;;;;;4.10;99.90;;;;;;5050742;28;20379;-72
2022/02/16 08:15:46;;;;;;;;;;;4.20;99.90;;;;;;5050201;28;19917;-72
2022/02/16 08:18:14;;;;;;;;;;;4.30;99.90;;;;;;5049319;28;19912;-72
2022/02/16 08:20:41;;;;;;;;;;;4.40;99.90;;;;;;5032768;28;19913;-72
2022/02/16 08:23:07;;;;;;;;;;;4.40;99.90;;;;;;5050545;28;19909;-71
2022/02/16 08:25:34;;;;;;;;;;;4.40;99.90;;;;;;5052539;28;19912;-72
2022/02/16 08:27:59;;;;;;;;;;;4.50;99.90;;;;;;5052811;28;19920;-71
2022/02/16 08:30:25;;;;;;;;;;;4.40;99.90;;;;;;5053467;28;19909;-72
2022/02/16 08:32:52;;;;;;;;;;;4.30;99.90;;;;;;5053028;28;19960;-72
2022/02/16 08:35:18;;;;;;;;;;;4.30;99.90;;;;;;5053738;28;19915;-72
2022/02/16 08:37:44;;;;;;;;;;;4.20;99.90;;;;;;5052668;28;19972;-72
2022/02/16 08:40:11;;;;;;;;;;;4.30;99.90;;;;;;5051997;28;19954;-72
2022/02/16 08:42:36;;;;;;;;;;;4.30;99.90;;;;;;5035642;28;19999;-72
2022/02/16 08:45:02;;;;;;;;;;;4.40;99.90;;;;;;5052179;28;20003;-72
2022/02/16 08:47:28;;;;;;;;;;;4.50;99.90;;;;;;5052372;28;19964;-72
2022/02/16 08:49:53;;;;;;;;;;;4.60;99.90;;;;;;5053816;28;19909;-72
2022/02/16 08:52:19;;;;;;;;;;;4.80;99.90;;;;;;5052007;28;19915;-72
2022/02/16 08:54:45;;;;;;;;;;;5.00;99.90;;;;;;5053681;28;19908;-71
2022/02/16 08:57:10;;;;;;;;;;;4.90;99.90;;;;;;5053235;28;19982;-72
2022/02/16 08:59:36;;;;;;;;;;;5.00;99.90;;;;;;5053200;28;19909;-72
2022/02/16 09:02:02;;;;;;;;;;;5.00;99.90;;;;;;5053039;28;19913;-72
2022/02/16 09:04:27;;;;;;;;;;;5.00;99.90;;;;;;5035233;28;19955;-73
2022/02/16 09:09:38;;;;;;;;;;;5.10;99.90;;;;;;5053299;28;19909;-73
2022/02/16 09:12:05;;;;;;;;;;;5.10;99.90;;;;;;5051152;28;19935;-73
2022/02/16 09:14:30;;;;;;;;;;;5.30;99.90;;;;;;5053029;28;19917;-73
2022/02/16 09:16:56;;;;;;;;;;;5.40;99.90;;;;;;5052635;28;20012;-73
2022/02/16 09:19:22;;;;;;;;;;;5.40;99.90;;;;;;5053015;28;19909;-73
2022/02/16 09:21:48;;;;;;;;;;;5.40;99.90;;;;;;5052483;28;20117;-73
2022/02/16 09:24:13;;;;;;;;;;;5.50;99.90;;;;;;5051440;28;20283;-73
2022/02/16 09:26:39;;;;;;;;;;;5.50;99.90;;;;;;5050861;28;20157;-73
2022/02/16 09:29:05;;;;;;;;;;;5.70;99.90;;;;;;5051642;28;19913;-73
2022/02/16 09:31:31;;;;;;;;;;;5.70;99.90;;;;;;5034440;28;19988;-73
2022/02/16 09:33:56;;;;;;;;;;;5.60;99.90;;;;;;5051089;28;20364;-72
2022/02/16 09:36:22;;;;;;;;;;;5.60;99.90;;;;;;5034001;28;19919;-73
2022/02/16 09:38:47;;;;;;;;;;;5.60;99.90;;;;;;5051382;28;19915;-73
2022/02/16 09:41:15;;;;;;;;;;;5.70;99.90;;;;;;5051639;28;19958;-73
2022/02/16 09:43:40;;;;;;;;;;;5.70;99.90;;;;;;5052327;28;19940;-73
2022/02/16 09:46:06;;;;;;;;;;;5.80;99.90;;;;;;5034258;28;19948;-73
2022/02/16 09:48:33;;;;;;;;;;;5.90;99.90;;;;;;5050906;28;19931;-73
2022/02/16 09:50:58;;;;;;;;;;;6.00;99.90;;;;;;5052711;28;19915;-73
2022/02/16 09:53:24;;;;;;;;;;;6.10;99.90;;;;;;5033866;28;19909;-73
2022/02/16 09:55:50;;;;;;;;;;;6.20;99.90;;;;;;5051369;28;19919;-74
2022/02/16 09:58:16;;;;;;;;;;;6.40;99.90;;;;;;5052030;28;19916;-74
2022/02/16 10:01:00;;;;;;;;;;;6.40;99.90;;;;;;5054959;28;19928;-74
2022/02/16 10:03:26;;;;;;;;;;;6.50;99.90;;;;;;5051003;28;20004;-73
2022/02/16 10:05:51;;;;;;;;;;;6.50;99.90;;;;;;5051352;28;19956;-73
2022/02/16 10:08:37;;;;;;;;;;;6.60;99.90;;;;;;5052287;28;19963;-74
2022/02/16 10:11:02;;;;;;;;;;;6.70;99.60;;;;;;5049058;28;19908;-73
2022/02/16 10:13:28;;;;;;;;;;;6.90;98.50;;;;;;5050646;28;19912;-74
2022/02/16 10:15:54;;;;;;;;;;;7.10;97.80;;;;;;5050926;28;19924;-73
2022/02/16 10:18:21;;;;;;;;;;;7.00;97.20;;;;;;5050692;28;19908;-73
2022/02/16 10:20:47;;;;;;;;;;;7.00;98.00;;;;;;5051984;28;19913;-73
2022/02/16 10:23:14;;;;;;;;;;;7.10;97.30;;;;;;5050379;28;19932;-74
2022/02/16 10:25:46;;;;;;;;;;;7.20;97.20;;;;;;5052339;28;19909;-73
2022/02/16 10:28:19;;;;;;;;;;;7.20;97.20;;;;;;5051866;28;19920;-73
2022/02/16 10:30:54;;;;;;;;;;;7.10;98.40;;;;;;5047170;28;20392;-73
2022/02/16 10:33:27;;;;;;;;;;;7.10;98.70;;;;;;5051360;28;19908;-73
2022/02/16 10:36:09;;;;;;;;;;;7.00;97.50;;;;;;5050154;28;19909;-73
2022/02/16 10:38:52;;;;;;;;;;;7.10;96.90;;;;;;5048807;28;19951;-73
2022/02/16 10:41:18;;;;;;;;;;;7.10;96.30;;;;;;5045699;28;19913;-73
2022/02/16 10:43:44;;;;;;;;;;;7.20;96.00;;;;;;5050067;28;20008;-73
2022/02/16 10:46:37;;;;;;;;;;;7.30;94.70;;;;;;5051767;28;19960;-73
2022/02/16 10:49:16;;;;;;;;;;;7.70;94.30;;;;;;5046172;28;19909;-73
2022/02/16 10:51:43;;;;;;;;;;;8.10;93.50;;;;;;5051602;28;19909;-73
2022/02/16 10:54:09;;;;;;;;;;;8.10;92.00;;;;;;5051151;28;19909;-73
2022/02/16 10:56:35;;;;;;;;;;;8.00;92.00;;;;;;5051486;28;19934;-73
2022/02/16 10:59:00;;;;;;;;;;;8.10;91.10;;;;;;5049849;28;19918;-73
2022/02/16 11:01:26;;;;;;;;;;;8.30;91.00;;;;;;5051324;28;19978;-73
2022/02/16 11:03:53;;;;;;;;;;;8.40;90.20;;;;;;5050787;28;19913;-73
2022/02/16 11:06:20;;;;;;;;;;;8.20;86.30;;;;;;5051389;28;19959;-73
2022/02/16 11:08:46;;;;;;;;;;;7.90;88.00;;;;;;5046538;28;19949;-73
2022/02/16 11:11:14;;;;;;;;;;;7.80;88.40;;;;;;5051550;28;19916;-73
2022/02/16 11:13:41;;;;;;;;;;;7.70;90.30;;;;;;5050184;28;20438;-73
2022/02/16 11:16:06;;;;;;;;;;;7.60;90.80;;;;;;5051642;28;19916;-73
2022/02/16 11:18:46;;;;;;;;;;;7.60;91.90;;;;;;5050705;28;20442;-73
2022/02/16 11:21:14;;;;;;;;;;;7.70;92.20;;;;;;5051300;28;19950;-73
2022/02/16 11:23:42;;;;;;;;;;;7.90;92.40;;;;;;5050791;28;19914;-73
2022/02/16 11:26:26;;;;;;;;;;;8.10;91.70;;;;;;5050125;28;19998;-73
2022/02/16 11:28:52;;;;;;;;;;;8.00;91.90;;;;;;5043262;28;19920;-73
2022/02/16 11:31:26;;;;;;;;;;;7.80;90.60;;;;;;5051114;28;19913;-73
2022/02/16 11:34:10;;;;;;;;;;;7.90;91.90;;;;;;5050746;28;19913;-73
2022/02/16 11:36:48;;;;;;;;;;;8.00;91.20;;;;;;5049158;28;20291;-73
2022/02/16 11:39:33;;;;;;;;;;;8.00;90.50;;;;;;5046587;28;19920;-73
2022/02/16 11:41:58;;;;;;;;;;;8.00;90.70;;;;;;5051308;28;19958;-73
2022/02/16 11:44:44;;;;;;;;;;;7.90;91.10;;;;;;5047815;28;19908;-73
2022/02/16 11:47:09;;;;;;;;;;;7.80;91.70;;;;;;5049820;28;19910;-73
2022/02/16 11:49:36;;;;;;;;;;;7.70;92.50;;;;;;5032543;28;20387;-73
2022/02/16 11:52:22;;;;;;;;;;;7.60;93.60;;;;;;5049713;28;19912;-73
2022/02/16 11:54:48;;;;;;;;;;;7.40;93.90;;;;;;5050273;28;19909;-73
2022/02/16 11:57:34;;;;;;;;;;;7.40;94.80;;;;;;5050784;28;19913;-74
2022/02/16 12:00:00;;;;;;;;;;;7.40;95.50;;;;;;5052729;28;19908;-74
2022/02/16 12:02:26;;;;;;;;;;;7.30;95.40;;;;;;5036725;28;19913;-73
2022/02/16 12:04:56;;;;;;;;;;;7.30;96.20;;;;;;5036575;28;20047;-73
2022/02/16 12:07:29;;;;;;;;;;;7.20;97.30;;;;;;5053345;28;19913;-73
2022/02/16 12:10:13;;;;;;;;;;;7.10;97.60;;;;;;5054378;28;19915;-73
2022/02/16 12:12:39;;;;;;;;;;;7.00;98.60;;;;;;5041470;28;20391;-73
2022/02/16 12:15:05;;;;;;;;;;;6.90;99.90;;;;;;5054116;28;20039;-74
2022/02/16 12:17:31;;;;;;;;;;;7.00;99.90;;;;;;5054559;28;19942;-73
2022/02/16 12:19:56;;;;;;;;;;;6.80;99.50;;;;;;5054468;28;19908;-73
2022/02/16 12:22:22;;;;;;;;;;;6.70;99.90;;;;;;5053106;28;19962;-73
2022/02/16 12:24:48;;;;;;;;;;;6.70;99.90;;;;;;5053943;28;19948;-73
2022/02/16 12:27:18;;;;;;;;;;;6.70;99.90;;;;;;5054425;28;20054;-73
2022/02/16 12:29:44;;;;;;;;;;;6.60;99.90;;;;;;5054117;28;19919;-73
2022/02/16 12:32:10;;;;;;;;;;;6.60;99.90;;;;;;5054547;28;19995;-74
2022/02/16 12:34:35;;;;;;;;;;;6.60;99.90;;;;;;5052809;28;20202;-73
2022/02/16 12:37:04;;;;;;;;;;;6.70;99.90;;;;;;5053154;28;19932;-74
2022/02/16 12:39:31;;;;;;;;;;;6.80;99.90;;;;;;5053447;28;19909;-74
2022/02/16 12:42:01;;;;;;;;;;;6.80;99.90;;;;;;5052914;28;20730;-73
2022/02/16 12:44:28;;;;;;;;;;;6.90;99.90;;;;;;5054192;28;20322;-73
2022/02/16 12:46:54;;;;;;;;;;;6.80;99.90;;;;;;5052634;28;19909;-73
2022/02/16 12:49:24;;;;;;;;;;;6.90;99.90;;;;;;5054013;28;20011;-74
2022/02/16 12:51:51;;;;;;;;;;;6.90;99.90;;;;;;5053985;28;19909;-73
2022/02/16 12:54:21;;;;;;;;;;;6.90;99.90;;;;;;5053810;28;19969;-73
2022/02/16 12:56:51;;;;;;;;;;;6.90;99.90;;;;;;5052399;28;19909;-73
2022/02/16 12:59:21;;;;;;;;;;;7.00;99.90;;;;;;5052214;28;19925;-74
2022/02/16 13:01:54;;;;;;;;;;;7.00;99.90;;;;;;5053039;28;20377;-74
2022/02/16 13:04:20;;;;;;;;;;;7.00;99.90;;;;;;5053750;28;19970;-74
2022/02/16 13:06:49;;;;;;;;;;;7.00;99.90;;;;;;5053675;28;19909;-73
2022/02/16 13:09:18;;;;;;;;;;;7.00;99.90;;;;;;5053176;28;19909;-73
2022/02/16 13:11:51;;;;;;;;;;;7.10;99.90;;;;;;5051453;28;19920;-74
2022/02/16 13:14:18;;;;;;;;;;;7.20;99.90;;;;;;5051483;28;19970;-74
2022/02/16 13:16:51;;;;;;;;;;;7.20;99.90;;;;;;5053063;28;20363;-74
2022/02/16 13:19:36;;;;;;;;;;;7.20;99.90;;;;;;5052801;28;20281;-73
2022/02/16 13:22:03;;;;;;;;;;;7.30;99.90;;;;;;5052787;28;19913;-73
2022/02/16 13:24:29;;;;;;;;;;;7.30;99.90;;;;;;5051615;28;19909;-74
2022/02/16 13:27:00;;;;;;;;;;;7.40;99.90;;;;;;5051467;28;19923;-74
2022/02/16 13:29:27;;;;;;;;;;;7.30;99.90;;;;;;5034843;28;19913;-73
2022/02/16 13:31:53;;;;;;;;;;;7.30;99.90;;;;;;5053239;28;20268;-73
2022/02/16 13:34:19;;;;;;;;;;;7.40;99.90;;;;;;5051693;28;19913;-73
2022/02/16 13:36:45;;;;;;;;;;;7.30;99.90;;;;;;5051313;28;20016;-74
2022/02/16 13:39:17;;;;;;;;;;;7.10;99.90;;;;;;5051947;28;19908;-74
2022/02/16 13:41:56;;;;;;;;;;;7.10;99.90;;;;;;5052435;28;19913;-73
2022/02/16 13:44:26;;;;;;;;;;;7.10;99.90;;;;;;5051642;28;19913;-74
2022/02/16 13:46:53;;;;;;;;;;;7.20;99.90;;;;;;5051072;28;20654;-73
2022/02/16 13:49:25;;;;;;;;;;;7.30;99.90;;;;;;5051668;28;19916;-73
2022/02/16 13:51:54;;;;;;;;;;;7.20;99.90;;;;;;5034222;28;19992;-73
2022/02/16 13:54:21;;;;;;;;;;;7.10;99.90;;;;;;5052563;28;20023;-74
2022/02/16 13:56:48;;;;;;;;;;;7.10;99.90;;;;;;5050718;28;19917;-74
2022/02/16 13:59:14;;;;;;;;;;;7.10;99.90;;;;;;5034630;28;19927;-73
2022/02/16 14:01:39;;;;;;;;;;;7.10;99.90;;;;;;5050553;28;20364;-73
2022/02/16 14:04:06;;;;;;;;;;;7.00;99.90;;;;;;5050824;28;19909;-73
2022/02/16 14:06:32;;;;;;;;;;;6.90;99.90;;;;;;5052061;28;20379;-74
2022/02/16 14:08:58;;;;;;;;;;;6.80;99.90;;;;;;5052336;28;19909;-73
2022/02/16 14:11:24;;;;;;;;;;;6.80;99.90;;;;;;5050736;28;19909;-74
2022/02/16 14:13:50;;;;;;;;;;;6.70;99.90;;;;;;5052495;28;19942;-73
2022/02/16 14:16:16;;;;;;;;;;;6.70;99.90;;;;;;5051593;28;20325;-73
2022/02/16 14:18:42;;;;;;;;;;;6.70;99.90;;;;;;5051986;28;20351;-73
2022/02/16 14:21:08;;;;;;;;;;;6.80;99.90;;;;;;5051727;28;19924;-74
2022/02/16 14:23:36;;;;;;;;;;;6.70;99.90;;;;;;5051462;28;19908;-75
2022/02/16 14:26:02;;;;;;;;;;;6.70;99.90;;;;;;5050925;28;19951;-75
2022/02/16 14:28:28;;;;;;;;;;;6.80;99.90;;;;;;5050660;28;19908;-73
2022/02/16 14:30:54;;;;;;;;;;;6.80;99.90;;;;;;5051384;28;19936;-73
2022/02/16 14:33:21;;;;;;;;;;;6.80;99.90;;;;;;5034053;28;19963;-73